createdAt,value
2017-12-26T00:01:33.471Z,57.80
2017-12-26T00:04:01.556Z,57.40
2017-12-26T00:06:29.930Z,57.40
2017-12-26T00:08:58.274Z,57.60
2017-12-26T00:11:26.615Z,58.00
2017-12-26T00:13:55.672Z,58.50
2017-12-26T00:16:23.341Z,58.00
2017-12-26T00:18:51.693Z,58.10
2017-12-26T00:21:20.040Z,57.90
2017-12-26T00:23:48.397Z,57.50
2017-12-26T00:26:19.078Z,57.50
2017-12-26T00:28:46.637Z,57.70
2017-12-26T00:31:15.032Z,57.80
2017-12-26T00:33:43.520Z,57.90
2017-12-26T00:36:11.880Z,57.80
2017-12-26T00:38:40.180Z,57.80
2017-12-26T00:41:08.574Z,57.60
2017-12-26T00:43:36.879Z,57.60
2017-12-26T00:46:05.218Z,57.30
2017-12-26T00:48:33.564Z,57.20
2017-12-26T00:51:01.905Z,57.10
2017-12-26T00:53:30.224Z,57.10
2017-12-26T00:55:58.629Z,57.10
2017-12-26T00:58:26.963Z,57.40
2017-12-26T01:00:55.385Z,57.60
2017-12-26T01:03:23.703Z,57.50
2017-12-26T01:05:52.036Z,57.40
2017-12-26T01:08:20.031Z,57.70
2017-12-26T01:10:47.677Z,57.10
2017-12-26T01:13:16.021Z,57.40
2017-12-26T01:15:44.547Z,57.90
2017-12-26T01:18:12.559Z,58.20
2017-12-26T01:20:40.944Z,58.30
2017-12-26T01:23:09.361Z,58.20
2017-12-26T01:25:36.948Z,57.90
2017-12-26T01:28:04.935Z,57.80
2017-12-26T01:30:34.087Z,58.30
2017-12-26T01:33:02.776Z,58.10
2017-12-26T01:35:31.172Z,57.70
2017-12-26T01:37:59.512Z,57.50
2017-12-26T01:40:27.846Z,57.50
2017-12-26T01:42:55.419Z,57.90
2017-12-26T01:45:23.354Z,57.80
2017-12-26T01:47:51.822Z,57.70
2017-12-26T01:50:20.248Z,57.30
2017-12-26T01:52:48.616Z,56.80
2017-12-26T01:55:17.673Z,58.10
2017-12-26T01:57:45.379Z,57.90
2017-12-26T02:00:13.703Z,58.10
2017-12-26T02:02:42.132Z,58.00
2017-12-26T02:05:11.374Z,58.00
2017-12-26T02:07:38.970Z,57.30
2017-12-26T02:10:07.270Z,57.70
2017-12-26T02:12:35.591Z,57.70
2017-12-26T02:15:03.890Z,57.70
2017-12-26T02:17:32.227Z,57.50
2017-12-26T02:20:00.641Z,58.00
2017-12-26T02:22:28.972Z,57.70
2017-12-26T02:24:58.205Z,57.80
2017-12-26T02:27:26.777Z,58.10
2017-12-26T02:29:55.278Z,58.70
2017-12-26T02:32:22.831Z,58.10
2017-12-26T02:34:51.538Z,58.50
2017-12-26T02:37:19.085Z,57.70
2017-12-26T02:39:47.423Z,57.40
2017-12-26T02:42:15.760Z,57.40
2017-12-26T02:44:44.243Z,57.60
2017-12-26T02:47:12.562Z,57.50
2017-12-26T02:49:40.893Z,58.00
2017-12-26T02:52:09.225Z,58.30
2017-12-26T02:54:37.551Z,58.00
2017-12-26T02:57:05.919Z,58.20
2017-12-26T02:59:34.253Z,58.20
2017-12-26T03:02:02.568Z,57.70
2017-12-26T03:04:30.887Z,57.70
2017-12-26T03:06:59.199Z,57.90
2017-12-26T03:09:27.532Z,57.90
2017-12-26T03:11:56.606Z,58.50
2017-12-26T03:14:24.182Z,58.00
2017-12-26T03:16:52.498Z,58.50
2017-12-26T03:19:20.832Z,61.00
2017-12-26T03:21:49.135Z,58.00
2017-12-26T03:24:17.531Z,57.70
2017-12-26T03:26:45.835Z,58.10
2017-12-26T03:29:14.190Z,58.20
2017-12-26T03:31:42.514Z,58.30
2017-12-26T03:34:10.942Z,57.80
2017-12-26T03:36:39.250Z,57.80
2017-12-26T03:39:07.700Z,57.90
2017-12-26T03:41:36.030Z,58.20
2017-12-26T03:44:04.364Z,58.40
2017-12-26T03:46:32.675Z,58.10
2017-12-26T03:49:01.743Z,58.90
2017-12-26T03:51:29.401Z,58.30
2017-12-26T03:53:57.733Z,58.80
2017-12-26T03:56:26.044Z,58.60
2017-12-26T03:58:54.349Z,58.30
2017-12-26T04:01:22.802Z,57.90
2017-12-26T04:03:51.112Z,57.80
2017-12-26T04:06:19.558Z,58.00
2017-12-26T04:08:47.866Z,58.30
2017-12-26T04:11:16.202Z,58.20
2017-12-26T04:13:44.506Z,58.00
2017-12-26T04:16:12.868Z,57.70
2017-12-26T04:18:41.181Z,57.90
2017-12-26T04:21:09.522Z,57.80
2017-12-26T04:23:37.835Z,58.40
2017-12-26T04:26:06.914Z,59.00
2017-12-26T04:28:34.467Z,58.40
2017-12-26T04:31:02.798Z,58.10
2017-12-26T04:33:31.134Z,58.00
2017-12-26T04:35:59.465Z,58.00
2017-12-26T04:38:27.778Z,58.00
2017-12-26T04:40:56.106Z,58.10
2017-12-26T04:43:24.435Z,58.20
2017-12-26T04:45:51.993Z,58.00
2017-12-26T04:48:19.931Z,57.80
2017-12-26T04:50:48.271Z,57.80
2017-12-26T04:53:16.574Z,57.80
2017-12-26T04:55:44.904Z,57.90
2017-12-26T04:58:13.212Z,57.70
2017-12-26T05:00:41.551Z,57.90
2017-12-26T05:03:09.872Z,57.90
2017-12-26T05:05:38.199Z,57.70
2017-12-26T05:08:06.509Z,57.80
2017-12-26T05:10:34.844Z,58.10
2017-12-26T05:13:03.179Z,58.40
2017-12-26T05:15:31.521Z,58.50
2017-12-26T05:17:59.840Z,58.20
2017-12-26T05:20:28.158Z,58.10
2017-12-26T05:22:56.490Z,57.90
2017-12-26T05:25:24.803Z,58.10
2017-12-26T05:27:53.188Z,58.00
2017-12-26T05:30:21.567Z,57.90
2017-12-26T05:32:49.895Z,57.90
2017-12-26T05:35:18.285Z,58.20
2017-12-26T05:37:46.619Z,58.10
2017-12-26T05:40:15.027Z,58.00
2017-12-26T05:42:43.458Z,58.30
2017-12-26T05:45:11.780Z,58.30
2017-12-26T05:47:40.127Z,58.60
2017-12-26T05:50:08.426Z,58.40
2017-12-26T05:52:36.756Z,58.30
2017-12-26T05:55:05.066Z,58.00
2017-12-26T05:57:33.391Z,58.00
2017-12-26T06:00:01.718Z,58.00
2017-12-26T06:02:30.043Z,58.10
2017-12-26T06:04:58.366Z,57.90
2017-12-26T06:07:26.689Z,58.30
2017-12-26T06:09:55.740Z,59.00
2017-12-26T06:12:23.296Z,58.80
2017-12-26T06:14:51.676Z,58.50
2017-12-26T06:17:20.096Z,58.40
2017-12-26T06:19:48.433Z,58.70
2017-12-26T06:22:16.756Z,58.80
2017-12-26T06:24:45.190Z,58.90
2017-12-26T06:27:13.540Z,58.80
2017-12-26T06:29:41.852Z,58.30
2017-12-26T06:32:10.181Z,58.60
2017-12-26T06:34:38.603Z,58.70
2017-12-26T06:37:06.993Z,58.50
2017-12-26T06:39:35.274Z,58.40
2017-12-26T06:42:03.578Z,58.30
2017-12-26T06:44:32.011Z,58.30
2017-12-26T06:47:00.317Z,58.20
2017-12-26T06:49:28.643Z,58.40
2017-12-26T06:51:56.970Z,58.60
2017-12-26T06:54:25.299Z,58.30
2017-12-26T06:56:53.617Z,57.90
2017-12-26T06:59:21.947Z,58.10
2017-12-26T07:01:50.360Z,58.50
2017-12-26T07:04:18.907Z,58.60
2017-12-26T07:06:46.846Z,58.60
2017-12-26T07:09:15.167Z,58.40
2017-12-26T07:11:42.711Z,58.10
2017-12-26T07:14:10.670Z,58.10
2017-12-26T07:16:38.980Z,58.10
2017-12-26T07:19:07.313Z,57.70
2017-12-26T07:21:41.438Z,57.70
2017-12-26T07:24:09.454Z,57.90
2017-12-26T07:26:37.763Z,58.00
2017-12-26T07:29:06.092Z,57.70
2017-12-26T07:31:34.487Z,57.70
2017-12-26T07:34:02.811Z,57.90
2017-12-26T07:36:31.127Z,58.00
2017-12-26T07:38:58.684Z,58.30
2017-12-26T07:41:26.694Z,58.00
2017-12-26T07:43:55.035Z,58.30
2017-12-26T07:46:23.337Z,58.00
2017-12-26T07:48:51.664Z,58.10
2017-12-26T07:51:19.966Z,58.40
2017-12-26T07:53:48.306Z,58.50
2017-12-26T07:56:16.607Z,58.00
2017-12-26T07:58:44.930Z,58.40
2017-12-26T08:01:13.228Z,58.40
2017-12-26T08:03:41.670Z,58.40
2017-12-26T08:06:09.986Z,58.40
2017-12-26T08:08:39.284Z,59.20
2017-12-26T08:11:06.859Z,58.50
2017-12-26T08:13:34.816Z,58.70
2017-12-26T08:16:02.394Z,58.90
2017-12-26T08:18:30.334Z,58.70
2017-12-26T08:20:59.405Z,59.30
2017-12-26T08:23:26.961Z,58.90
2017-12-26T08:25:55.304Z,58.80
2017-12-26T08:28:23.739Z,58.70
2017-12-26T08:30:52.076Z,59.10
2017-12-26T08:33:20.385Z,59.10
2017-12-26T08:35:48.716Z,59.00
2017-12-26T08:38:17.027Z,58.90
2017-12-26T08:40:45.376Z,59.00
2017-12-26T08:43:13.698Z,59.20
2017-12-26T08:45:42.060Z,59.40
2017-12-26T08:48:10.367Z,59.40
2017-12-26T08:50:38.716Z,59.30
2017-12-26T08:53:07.023Z,59.20
2017-12-26T08:55:35.357Z,59.20
2017-12-26T08:58:03.670Z,59.10
2017-12-26T09:00:32.001Z,59.10
2017-12-26T09:03:00.303Z,59.20
2017-12-26T09:05:28.681Z,58.90
2017-12-26T09:07:57.060Z,59.00
2017-12-26T09:10:25.379Z,59.00
2017-12-26T09:12:54.868Z,59.20
2017-12-26T09:15:22.434Z,58.60
2017-12-26T09:17:50.472Z,58.50
2017-12-26T09:20:18.804Z,58.60
2017-12-26T09:22:47.127Z,58.50
2017-12-26T09:25:15.844Z,58.30
2017-12-26T09:27:43.801Z,58.00
2017-12-26T09:30:12.111Z,57.80
2017-12-26T09:32:40.538Z,57.70
2017-12-26T09:35:08.821Z,57.50
2017-12-26T09:37:37.694Z,57.40
2017-12-26T09:40:05.606Z,57.20
2017-12-26T09:42:33.893Z,57.20
2017-12-26T09:45:02.186Z,59.30
2017-12-26T09:47:30.512Z,57.00
2017-12-26T09:49:59.508Z,57.10
2017-12-26T09:52:27.682Z,57.10
2017-12-26T09:54:55.603Z,56.90
2017-12-26T09:57:24.217Z,56.90
2017-12-26T09:59:52.514Z,57.00
2017-12-26T10:02:20.058Z,58.70
2017-12-26T10:04:47.966Z,56.50
2017-12-26T10:07:16.278Z,56.00
2017-12-26T10:09:44.606Z,55.80
2017-12-26T10:12:12.956Z,55.10
2017-12-26T10:14:40.456Z,54.90
2017-12-26T10:17:08.866Z,54.90
2017-12-26T10:19:38.919Z,55.30
2017-12-26T10:22:07.408Z,54.80
2017-12-26T10:24:35.708Z,53.80
2017-12-26T10:27:04.177Z,53.80
2017-12-26T10:29:32.492Z,52.70
2017-12-26T10:32:00.266Z,49.70
2017-12-26T10:34:28.370Z,49.30
2017-12-26T10:36:56.370Z,48.80
2017-12-26T10:39:23.934Z,48.30
2017-12-26T10:41:51.889Z,47.80
2017-12-26T10:44:20.201Z,47.80
2017-12-26T10:46:48.527Z,47.00
2017-12-26T10:49:16.826Z,46.40
2017-12-26T10:51:45.116Z,47.10
2017-12-26T10:54:13.882Z,47.90
2017-12-26T10:56:43.122Z,47.90
2017-12-26T10:59:10.673Z,47.80
2017-12-26T11:01:38.594Z,46.50
2017-12-26T11:04:06.907Z,45.30
2017-12-26T11:06:36.083Z,44.90
2017-12-26T11:09:03.635Z,43.80
2017-12-26T11:11:32.374Z,44.20
2017-12-26T11:14:01.002Z,43.30
2017-12-26T11:16:29.654Z,43.30
2017-12-26T11:18:58.117Z,43.00
2017-12-26T11:21:26.414Z,43.20
2017-12-26T11:23:53.957Z,43.10
2017-12-26T11:26:22.299Z,43.60
2017-12-26T11:28:52.999Z,43.80
2017-12-26T11:31:20.519Z,43.70
2017-12-26T11:33:48.525Z,43.90
2017-12-26T11:36:18.195Z,44.20
2017-12-26T11:38:46.773Z,43.70
2017-12-26T11:41:15.065Z,43.30
2017-12-26T11:43:43.684Z,43.40
2017-12-26T11:46:11.604Z,43.70
2017-12-26T11:48:39.915Z,44.30
2017-12-26T11:51:08.201Z,43.90
2017-12-26T11:53:36.786Z,44.90
2017-12-26T11:56:05.081Z,45.40
2017-12-26T11:58:33.394Z,45.50
2017-12-26T12:01:02.417Z,46.40
2017-12-26T12:03:32.053Z,46.20
2017-12-26T12:05:59.709Z,46.50
2017-12-26T12:08:28.074Z,47.00
2017-12-26T12:10:56.366Z,47.40
2017-12-26T12:13:24.914Z,47.60
2017-12-26T12:15:53.201Z,48.00
2017-12-26T12:18:21.610Z,47.80
2017-12-26T12:20:50.157Z,48.00
2017-12-26T12:23:18.175Z,47.70
2017-12-26T12:25:46.490Z,47.60
2017-12-26T12:28:14.791Z,47.50
2017-12-26T12:30:43.090Z,47.50
2017-12-26T12:33:11.477Z,47.40
2017-12-26T12:35:39.814Z,47.20
2017-12-26T12:38:08.111Z,46.80
2017-12-26T12:40:35.666Z,46.60
2017-12-26T12:43:03.868Z,46.40
2017-12-26T12:45:32.717Z,46.00
2017-12-26T12:48:00.235Z,45.90
2017-12-26T12:50:28.566Z,47.00
2017-12-26T12:52:56.864Z,47.60
2017-12-26T12:55:25.174Z,48.00
2017-12-26T12:57:53.468Z,48.30
2017-12-26T13:00:21.807Z,48.60
2017-12-26T13:02:50.088Z,48.70
2017-12-26T13:05:18.812Z,49.00
2017-12-26T13:07:46.742Z,48.60
2017-12-26T13:10:16.000Z,49.00
2017-12-26T13:12:43.514Z,49.40
2017-12-26T13:15:11.892Z,48.90
2017-12-26T13:17:40.284Z,48.90
2017-12-26T13:20:08.606Z,47.00
2017-12-26T13:22:36.901Z,46.70
2017-12-26T13:25:05.604Z,46.80
2017-12-26T13:27:34.047Z,46.40
2017-12-26T13:30:03.929Z,45.40
2017-12-26T13:32:32.655Z,44.40
2017-12-26T13:35:03.252Z,43.40
2017-12-26T13:37:32.039Z,42.60
2017-12-26T13:40:00.389Z,42.50
2017-12-26T13:42:27.924Z,41.70
2017-12-26T13:44:56.203Z,42.80
2017-12-26T13:47:24.538Z,43.00
2017-12-26T13:49:52.055Z,43.00
2017-12-26T13:52:20.057Z,42.60
2017-12-26T13:54:48.868Z,42.00
2017-12-26T13:57:16.799Z,43.00
2017-12-26T13:59:45.081Z,42.60
2017-12-26T14:02:13.400Z,42.20
2017-12-26T14:04:41.672Z,42.00
2017-12-26T14:07:10.861Z,42.70
2017-12-26T14:09:38.433Z,42.10
2017-12-26T14:12:06.734Z,41.50
2017-12-26T14:14:35.929Z,42.10
2017-12-26T14:17:04.419Z,41.80
2017-12-26T14:19:31.950Z,41.50
2017-12-26T14:21:59.893Z,42.40
2017-12-26T14:24:28.165Z,42.30
2017-12-26T14:26:55.732Z,42.80
2017-12-26T14:29:23.639Z,42.60
2017-12-26T14:31:52.064Z,42.40
2017-12-26T14:34:20.404Z,41.30
2017-12-26T14:36:48.709Z,40.80
2017-12-26T14:39:16.985Z,40.90
2017-12-26T14:41:45.305Z,40.90
2017-12-26T14:44:13.581Z,41.10
2017-12-26T14:46:42.601Z,40.80
2017-12-26T14:49:11.827Z,40.60
2017-12-26T14:51:40.158Z,39.80
2017-12-26T14:54:09.985Z,40.10
2017-12-26T14:56:38.296Z,38.80
2017-12-26T14:59:07.410Z,38.70
2017-12-26T15:01:35.485Z,37.60
2017-12-26T15:04:03.008Z,37.50
2017-12-26T15:06:32.040Z,37.60
2017-12-26T15:09:00.334Z,37.40
2017-12-26T15:11:29.220Z,37.70
2017-12-26T15:13:57.179Z,38.20
2017-12-26T15:16:25.632Z,38.60
2017-12-26T15:18:53.922Z,39.40
2017-12-26T15:21:21.600Z,40.20
2017-12-26T15:23:49.898Z,41.10
2017-12-26T15:26:18.435Z,42.20
2017-12-26T15:28:46.747Z,43.00
2017-12-26T15:31:16.354Z,44.30
2017-12-26T15:33:47.009Z,44.40
2017-12-26T15:36:14.538Z,44.60
2017-12-26T15:38:44.341Z,44.90
2017-12-26T15:41:12.621Z,44.90
2017-12-26T15:43:40.957Z,45.70
2017-12-26T15:46:09.474Z,45.40
2017-12-26T15:48:37.421Z,45.70
2017-12-26T15:51:05.702Z,45.40
2017-12-26T15:53:34.001Z,45.80
2017-12-26T15:56:01.509Z,46.00
2017-12-26T15:58:29.860Z,46.10
2017-12-26T16:00:57.772Z,45.70
2017-12-26T16:03:26.632Z,45.90
2017-12-26T16:05:54.537Z,46.20
2017-12-26T16:08:22.837Z,45.10
2017-12-26T16:10:51.117Z,44.70
2017-12-26T16:13:19.409Z,44.30
2017-12-26T16:15:47.686Z,44.50
2017-12-26T16:18:15.989Z,44.60
2017-12-26T16:20:44.275Z,44.60
2017-12-26T16:23:11.806Z,44.60
2017-12-26T16:25:40.469Z,44.50
2017-12-26T16:28:07.998Z,44.00
2017-12-26T16:30:36.297Z,43.80
2017-12-26T16:33:04.590Z,43.30
2017-12-26T16:35:32.121Z,43.00
2017-12-26T16:38:00.060Z,42.80
2017-12-26T16:40:28.364Z,42.60
2017-12-26T16:42:56.845Z,42.50
2017-12-26T16:45:26.281Z,42.80
2017-12-26T16:47:53.793Z,42.70
2017-12-26T16:50:21.756Z,42.90
2017-12-26T16:52:50.792Z,43.20
2017-12-26T16:55:18.318Z,40.40
2017-12-26T16:57:46.771Z,43.30
2017-12-26T17:00:15.085Z,43.30
2017-12-26T17:02:43.532Z,43.10
2017-12-26T17:05:11.833Z,43.30
2017-12-26T17:07:40.191Z,43.10
2017-12-26T17:10:08.501Z,43.20
2017-12-26T17:12:37.520Z,44.20
2017-12-26T17:15:05.128Z,44.00
2017-12-26T17:17:33.451Z,44.00
2017-12-26T17:20:01.805Z,44.30
2017-12-26T17:22:30.346Z,44.60
2017-12-26T17:24:58.909Z,44.90
2017-12-26T17:27:27.803Z,45.30
2017-12-26T17:29:55.381Z,45.80
2017-12-26T17:32:23.703Z,46.40
2017-12-26T17:34:52.041Z,46.90
2017-12-26T17:37:20.339Z,46.90
2017-12-26T17:39:48.644Z,47.00
2017-12-26T17:42:16.929Z,47.10
2017-12-26T17:44:45.218Z,49.10
2017-12-26T17:47:14.315Z,48.40
2017-12-26T17:49:41.917Z,48.20
2017-12-26T17:52:10.213Z,48.60
2017-12-26T17:54:38.563Z,48.70
2017-12-26T17:57:06.068Z,48.60
2017-12-26T17:59:33.973Z,48.90
2017-12-26T18:02:02.270Z,49.10
2017-12-26T18:04:30.650Z,49.30
2017-12-26T18:06:58.994Z,49.60
2017-12-26T18:09:28.013Z,50.40
2017-12-26T18:11:55.562Z,49.90
2017-12-26T18:14:23.128Z,50.00
2017-12-26T18:16:51.075Z,50.40
2017-12-26T18:19:19.348Z,50.40
2017-12-26T18:21:48.439Z,51.30
2017-12-26T18:24:16.007Z,51.00
2017-12-26T18:26:44.354Z,51.10
2017-12-26T18:29:12.678Z,51.20
2017-12-26T18:31:40.982Z,51.30
2017-12-26T18:34:09.404Z,52.70
2017-12-26T18:36:37.752Z,51.50
2017-12-26T18:39:06.081Z,51.40
2017-12-26T18:41:34.375Z,51.20
2017-12-26T18:44:02.663Z,51.40
2017-12-26T18:46:30.971Z,51.50
2017-12-26T18:48:59.281Z,51.50
2017-12-26T18:51:28.360Z,51.60
2017-12-26T18:53:56.312Z,52.20
2017-12-26T18:56:24.666Z,52.20
2017-12-26T18:58:53.128Z,52.40
2017-12-26T19:01:21.104Z,52.70
2017-12-26T19:03:48.655Z,52.90
2017-12-26T19:06:16.628Z,52.70
2017-12-26T19:08:44.915Z,52.40
2017-12-26T19:11:13.214Z,52.60
2017-12-26T19:13:41.542Z,52.70
2017-12-26T19:16:09.836Z,52.80
2017-12-26T19:18:39.936Z,53.40
2017-12-26T19:21:07.910Z,52.90
2017-12-26T19:23:36.467Z,53.10
2017-12-26T19:26:04.794Z,53.80
2017-12-26T19:28:33.107Z,53.70
2017-12-26T19:31:01.438Z,53.70
2017-12-26T19:33:30.532Z,53.70
2017-12-26T19:35:58.155Z,53.70
2017-12-26T19:38:26.507Z,53.50
2017-12-26T19:40:54.861Z,53.40
2017-12-26T19:43:23.264Z,53.70
2017-12-26T19:45:51.272Z,53.70
2017-12-26T19:48:19.758Z,54.00
2017-12-26T19:50:48.607Z,53.80
2017-12-26T19:53:17.520Z,53.50
2017-12-26T19:55:45.661Z,53.40
2017-12-26T19:58:13.257Z,53.10
2017-12-26T20:00:40.813Z,53.40
2017-12-26T20:03:08.442Z,53.50
2017-12-26T20:05:35.972Z,53.30
2017-12-26T20:08:04.276Z,53.00
2017-12-26T20:10:31.831Z,53.50
2017-12-26T20:12:59.484Z,54.00
2017-12-26T20:15:27.050Z,54.20
2017-12-26T20:17:54.626Z,54.00
2017-12-26T20:20:22.188Z,53.80
2017-12-26T20:22:50.665Z,53.70
2017-12-26T20:25:18.236Z,53.80
2017-12-26T20:27:45.809Z,53.70
2017-12-26T20:30:14.094Z,54.20
2017-12-26T20:32:41.679Z,53.90
2017-12-26T20:35:09.236Z,53.60
2017-12-26T20:37:36.848Z,54.10
2017-12-26T20:40:04.424Z,53.40
2017-12-26T20:42:31.953Z,53.50
2017-12-26T20:44:59.543Z,51.80
2017-12-26T20:47:27.872Z,54.20
2017-12-26T20:49:55.455Z,54.00
2017-12-26T20:52:23.012Z,54.10
2017-12-26T20:54:50.606Z,54.60
2017-12-26T20:57:18.173Z,54.20
2017-12-26T20:59:45.741Z,54.10
2017-12-26T21:02:13.293Z,54.20
2017-12-26T21:04:41.630Z,54.80
2017-12-26T21:07:09.277Z,54.40
2017-12-26T21:09:36.859Z,54.60
2017-12-26T21:12:04.463Z,54.70
2017-12-26T21:14:32.048Z,54.50
2017-12-26T21:17:00.416Z,54.60
2017-12-26T21:19:27.990Z,55.10
2017-12-26T21:21:56.324Z,55.00
2017-12-26T21:24:23.928Z,55.00
2017-12-26T21:26:51.478Z,55.40
2017-12-26T21:29:19.067Z,55.10
2017-12-26T21:31:47.949Z,55.10
2017-12-26T21:34:15.927Z,55.00
2017-12-26T21:36:43.503Z,55.20
2017-12-26T21:39:11.634Z,55.10
2017-12-26T21:41:39.235Z,55.50
2017-12-26T21:44:06.826Z,55.80
2017-12-26T21:46:35.170Z,55.70
2017-12-26T21:49:02.752Z,55.10
2017-12-26T21:51:31.259Z,55.30
2017-12-26T21:53:59.591Z,55.70
2017-12-26T21:56:27.186Z,55.40
2017-12-26T21:58:54.753Z,55.70
2017-12-26T22:01:22.347Z,55.80
2017-12-26T22:03:50.848Z,55.70
2017-12-26T22:06:18.432Z,56.20
2017-12-26T22:08:46.008Z,55.80
2017-12-26T22:11:14.524Z,55.60
2017-12-26T22:13:42.487Z,55.70
2017-12-26T22:16:10.082Z,55.90
2017-12-26T22:18:37.640Z,56.00
2017-12-26T22:21:06.062Z,56.00
2017-12-26T22:23:34.461Z,56.20
2017-12-26T22:26:02.818Z,56.30
2017-12-26T22:28:30.387Z,55.70
2017-12-26T22:30:58.743Z,55.60
2017-12-26T22:33:26.310Z,55.80
2017-12-26T22:35:54.280Z,55.80
2017-12-26T22:38:22.642Z,56.30
2017-12-26T22:40:50.249Z,56.50
2017-12-26T22:43:19.793Z,57.10
2017-12-26T22:45:47.376Z,56.20
2017-12-26T22:48:14.947Z,55.80
2017-12-26T22:50:43.259Z,55.80
2017-12-26T22:53:10.823Z,55.70
2017-12-26T22:55:39.198Z,56.00
2017-12-26T22:58:06.756Z,56.00
2017-12-26T23:00:34.360Z,56.10
2017-12-26T23:03:01.939Z,56.20
2017-12-26T23:05:31.132Z,56.40
2017-12-26T23:07:58.734Z,56.20
2017-12-26T23:10:27.444Z,56.00
2017-12-26T23:12:55.770Z,56.20
2017-12-26T23:15:30.000Z,56.30
2017-12-26T23:18:04.059Z,56.20
2017-12-26T23:20:37.332Z,56.40
2017-12-26T23:23:11.027Z,56.90
2017-12-26T23:25:44.346Z,56.70
2017-12-26T23:28:17.692Z,56.90
2017-12-26T23:30:50.964Z,56.90
2017-12-26T23:33:24.251Z,56.70
2017-12-26T23:35:57.822Z,56.90
2017-12-26T23:38:32.924Z,57.00
2017-12-26T23:41:06.134Z,56.90
2017-12-26T23:43:39.375Z,57.00
2017-12-26T23:46:14.237Z,57.40
2017-12-26T23:48:47.401Z,56.80
2017-12-26T23:51:20.611Z,56.80
2017-12-26T23:53:54.292Z,57.00
2017-12-26T23:56:27.565Z,57.30
2017-12-26T23:59:01.687Z,57.40
